Aviation Digital Data Service (ADDS)

Output produced by METARs form (1821 UTC 22 November 2017)
found at http://www.aviationweather.gov/adds/metars/
 
KOAJ 221746Z 2218/2318 36010G17KT P6SM SCT050 
     FM222300 01006KT P6SM FEW200 AMD LTD TO CLD VIS AND WIND
       
KOAK 221722Z 2218/2324 VRB04KT P6SM SCT200 
     FM221900 29006KT P6SM BKN250 
     FM230300 VRB03KT P6SM OVC200 
     FM231200 VRB02KT P6SM FEW050 BKN150 
     FM231400 VRB03KT P6SM SCT030 BKN100 
     TEMPO 2314/2317 BKN030 OVC080 
     FM232200 29006KT P6SM FEW040 SCT150
       
TAF KOFF 221800Z 2218/2324 19012KT 9999 FEW080 SCT150 QNH3000INS 
     BECMG 2311/2312 VRB06KT 4800 BR SKC QNH3006INS 
     BECMG 2314/2315 VRB06KT 9999 NSW SKC QNH2995INS TX06/2221Z TNM03/2308Z
       
KOFK 221720Z 2218/2318 19014G21KT P6SM BKN250 
     FM222300 20010KT P6SM BKN200 
     FM230300 23008KT P6SM FEW250 
     FM230600 30007KT P6SM FEW250 
     FM231200 29005KT P6SM FEW250
       
KOGB 221739Z 2218/2318 36007KT P6SM BKN250 
     FM222300 03004KT P6SM SCT250 
     FM231400 06005KT P6SM SCT040 BKN250
       
KOGD 221725Z 2218/2318 25006KT P6SM FEW090 SCT200 
     FM230100 17006KT P6SM BKN200
       
KOKC 221720Z 2218/2318 35005KT P6SM SCT240 
     FM230000 18005KT P6SM FEW250 
     FM231600 25005KT P6SM SKC
       
KOLF 221720Z 2218/2318 28012KT P6SM SCT150 
     FM230500 VRB03KT P6SM FEW060 
     FM230800 24004KT 3SM BR SCT018 WS020/28035KT
       
KOLM 221729Z 2218/2318 20006KT P6SM VCSH BKN045 BKN060 
     FM222100 20009KT P6SM -SHRA SCT025 OVC040 
     FM230500 20012G19KT 5SM -SHRA OVC025 
     FM230900 20011KT 5SM -SHRA OVC009
       
KOLS 221725Z 2218/2318 03005KT P6SM FEW250 
     FM222100 06007KT P6SM FEW250 
     FM230400 VRB04KT P6SM SKC
       
KOMA 221720Z 2218/2318 19012G20KT P6SM FEW100 BKN250 
     FM222300 18010KT P6SM SCT090 BKN200 
     FM230400 17007KT P6SM SCT250 
     FM231100 33005KT P6SM SKC
       
KONP 221734Z 2218/2318 19015G28KT P6SM -RADZ BKN015 BKN025 OVC040 
     TEMPO 2218/2220 4SM -RA BR BKN015 BKN025 OVC035 
     FM222000 19015G25KT 6SM -RADZ SCT009 BKN025 OVC040 
     FM230200 19020G30KT 5SM -RA BR BKN025 OVC045 
     FM230900 18025G39KT 3SM -RADZ BKN010 OVC025
       
KONT 221723Z 2218/2324 VRB06KT P6SM SKC
       
KOPF 221731Z 2218/2318 VRB04KT P6SM FEW035 
     FM221900 10011KT P6SM SCT040 SCT250 
     FM230100 11005KT P6SM VCSH SCT030 BKN250 
     FM231500 15009KT P6SM VCSH SCT030 BKN070 BKN100
       
KORD 221720Z 2218/2324 26005KT P6SM SKC 
     FM222300 22005KT P6SM OVC120 
     FM231500 23009KT P6SM FEW070
       
KORF 221749Z 2218/2318 35012G18KT P6SM SCT050 
     FM222300 01011G18KT P6SM FEW050 
     FM231500 36008KT P6SM SCT250
       
KORH 221734Z 2218/2318 30006KT 5SM -RA BR SCT007 BKN025 
     FM221930 31009KT 6SM BR VCSH BKN025 
     FM222100 32010G23KT P6SM SCT025 BKN080 
     FM222200 32012G27KT P6SM SCT250 
     FM230500 32010KT P6SM SKC
       
KOTH 221733Z 2218/2318 15005KT P6SM SCT025 OVC060 
     FM230100 19009KT P6SM -RA BKN025 
     FM230600 20011KT P6SM -RA OVC025 
     FM231000 20012G18KT P6SM -RA OVC008
       
KOTM 221727Z 2218/2318 23005KT P6SM SKC 
     FM230200 19008KT P6SM BKN110 
     FM231200 25007KT P6SM FEW250 
     FM231400 29007KT P6SM SKC
       
KOUN 221720Z 2218/2318 35005KT P6SM SCT240 
     FM230000 18005KT P6SM FEW250 
     FM231600 25005KT P6SM SKC
       
KOWB 221720Z 2218/2318 36008KT P6SM SCT250 
     FM230000 00000KT P6SM SCT250 
     FM231500 19005KT P6SM SCT100
       
KOXR 221727Z 2218/2318 05006KT P6SM SKC 
     FM221900 05012G18KT P6SM SKC 
     FM222100 29010KT P6SM SKC 
     FM230300 VRB03KT P6SM SKC 
     FM230900 04006KT P6SM SKC
       
TAF KOZR 221600Z 2216/2322 03009KT 9999 FEW030 SCT100 QNH3000INS 
     BECMG 2218/2219 02009KT 9999 BKN025 BKN080 QNH3002INS 
     BECMG 2220/2221 36009KT 9999 FEW030 FEW070 QNH3002INS 
     BECMG 2303/2304 02006KT 9999 BKN030 QNH3005INS 
     BECMG 2311/2312 04006KT 9999 BKN023 QNH2995INS TX20/2221Z TN09/2312Z